sensor_id;sensor_type;location;lat;lon;timestamp;temperature;humidity
67157;SHT31;54086;50.126;8.710;2022-12-18T00:03:50;-7.22;92.40
67157;SHT31;54086;50.126;8.710;2022-12-18T00:06:16;-7.24;92.27
67157;SHT31;54086;50.126;8.710;2022-12-18T00:08:42;-7.26;92.27
67157;SHT31;54086;50.126;8.710;2022-12-18T00:11:12;-7.44;92.48
67157;SHT31;54086;50.126;8.710;2022-12-18T00:13:38;-7.44;92.99
67157;SHT31;54086;50.126;8.710;2022-12-18T00:16:06;-7.37;93.06
67157;SHT31;54086;50.126;8.710;2022-12-18T00:18:32;-7.44;93.31
67157;SHT31;54086;50.126;8.710;2022-12-18T00:21:06;-7.43;93.35
67157;SHT31;54086;50.126;8.710;2022-12-18T00:23:34;-7.37;93.29
67157;SHT31;54086;50.126;8.710;2022-12-18T00:26:07;-7.34;93.20
67157;SHT31;54086;50.126;8.710;2022-12-18T00:28:33;-7.41;92.78
67157;SHT31;54086;50.126;8.710;2022-12-18T00:31:02;-7.44;92.92
67157;SHT31;54086;50.126;8.710;2022-12-18T00:33:28;-7.50;93.05
67157;SHT31;54086;50.126;8.710;2022-12-18T00:35:54;-7.34;93.04
67157;SHT31;54086;50.126;8.710;2022-12-18T00:38:19;-7.37;93.08
67157;SHT31;54086;50.126;8.710;2022-12-18T00:40:45;-7.48;92.91
67157;SHT31;54086;50.126;8.710;2022-12-18T00:43:10;-7.56;93.07
67157;SHT31;54086;50.126;8.710;2022-12-18T00:45:35;-7.64;93.23
67157;SHT31;54086;50.126;8.710;2022-12-18T00:48:01;-7.54;93.42
67157;SHT31;54086;50.126;8.710;2022-12-18T00:50:26;-7.55;93.05
67157;SHT31;54086;50.126;8.710;2022-12-18T00:52:52;-7.68;93.16
67157;SHT31;54086;50.126;8.710;2022-12-18T00:55:17;-7.59;93.53
67157;SHT31;54086;50.126;8.710;2022-12-18T00:57:43;-7.56;93.23
67157;SHT31;54086;50.126;8.710;2022-12-18T01:00:12;-7.50;93.17
67157;SHT31;54086;50.126;8.710;2022-12-18T01:02:38;-7.52;93.04
67157;SHT31;54086;50.126;8.710;2022-12-18T01:05:04;-7.47;92.86
67157;SHT31;54086;50.126;8.710;2022-12-18T01:07:30;-7.38;92.90
67157;SHT31;54086;50.126;8.710;2022-12-18T01:09:55;-7.52;92.42
67157;SHT31;54086;50.126;8.710;2022-12-18T01:12:20;-7.50;92.79
67157;SHT31;54086;50.126;8.710;2022-12-18T01:14:46;-7.50;92.65
67157;SHT31;54086;50.126;8.710;2022-12-18T01:17:11;-7.54;92.44
67157;SHT31;54086;50.126;8.710;2022-12-18T01:19:37;-7.52;92.67
67157;SHT31;54086;50.126;8.710;2022-12-18T01:22:02;-7.56;92.64
67157;SHT31;54086;50.126;8.710;2022-12-18T01:24:27;-7.56;92.71
67157;SHT31;54086;50.126;8.710;2022-12-18T01:26:53;-7.48;92.33
67157;SHT31;54086;50.126;8.710;2022-12-18T01:29:18;-7.50;92.61
67157;SHT31;54086;50.126;8.710;2022-12-18T01:31:43;-7.51;92.61
67157;SHT31;54086;50.126;8.710;2022-12-18T01:34:09;-7.50;92.87
67157;SHT31;54086;50.126;8.710;2022-12-18T01:36:36;-7.28;92.85
67157;SHT31;54086;50.126;8.710;2022-12-18T01:39:05;-7.22;92.64
67157;SHT31;54086;50.126;8.710;2022-12-18T01:41:32;-7.23;92.50
67157;SHT31;54086;50.126;8.710;2022-12-18T01:44:51;-7.24;92.47
67157;SHT31;54086;50.126;8.710;2022-12-18T01:47:46;-7.17;92.45
67157;SHT31;54086;50.126;8.710;2022-12-18T01:52:38;-7.35;92.71
67157;SHT31;54086;50.126;8.710;2022-12-18T01:55:06;-7.37;92.50
67157;SHT31;54086;50.126;8.710;2022-12-18T01:57:32;-7.37;92.68
67157;SHT31;54086;50.126;8.710;2022-12-18T02:00:07;-7.34;92.19
67157;SHT31;54086;50.126;8.710;2022-12-18T02:02:32;-7.23;92.24
67157;SHT31;54086;50.126;8.710;2022-12-18T02:04:58;-7.22;92.05
67157;SHT31;54086;50.126;8.710;2022-12-18T02:07:55;-7.20;92.21
67157;SHT31;54086;50.126;8.710;2022-12-18T02:13:23;-7.26;92.02
67157;SHT31;54086;50.126;8.710;2022-12-18T02:18:45;-7.34;91.94
67157;SHT31;54086;50.126;8.710;2022-12-18T02:26:37;-7.31;91.96
67157;SHT31;54086;50.126;8.710;2022-12-18T02:29:11;-7.33;91.94
67157;SHT31;54086;50.126;8.710;2022-12-18T02:31:43;-7.41;91.82
67157;SHT31;54086;50.126;8.710;2022-12-18T02:34:11;-7.47;91.95
67157;SHT31;54086;50.126;8.710;2022-12-18T02:36:40;-7.50;92.23
67157;SHT31;54086;50.126;8.710;2022-12-18T02:39:08;-7.51;92.33
67157;SHT31;54086;50.126;8.710;2022-12-18T02:41:34;-7.41;92.22
67157;SHT31;54086;50.126;8.710;2022-12-18T02:44:07;-7.38;92.14
67157;SHT31;54086;50.126;8.710;2022-12-18T02:46:37;-7.33;92.17
67157;SHT31;54086;50.126;8.710;2022-12-18T02:51:51;-7.30;91.96
67157;SHT31;54086;50.126;8.710;2022-12-18T02:54:27;-7.31;91.89
67157;SHT31;54086;50.126;8.710;2022-12-18T02:56:58;-7.37;91.86
67157;SHT31;54086;50.126;8.710;2022-12-18T02:59:34;-7.37;92.08
67157;SHT31;54086;50.126;8.710;2022-12-18T03:04:42;-7.35;91.92
67157;SHT31;54086;50.126;8.710;2022-12-18T03:07:20;-7.35;91.83
67157;SHT31;54086;50.126;8.710;2022-12-18T03:09:49;-7.34;91.80
67157;SHT31;54086;50.126;8.710;2022-12-18T03:12:21;-7.30;91.94
67157;SHT31;54086;50.126;8.710;2022-12-18T03:15:05;-7.27;91.79
67157;SHT31;54086;50.126;8.710;2022-12-18T03:17:33;-7.30;91.73
67157;SHT31;54086;50.126;8.710;2022-12-18T03:20:09;-7.26;91.46
67157;SHT31;54086;50.126;8.710;2022-12-18T03:22:36;-7.24;91.43
67157;SHT31;54086;50.126;8.710;2022-12-18T03:25:05;-7.23;91.32
67157;SHT31;54086;50.126;8.710;2022-12-18T03:27:33;-7.23;91.19
67157;SHT31;54086;50.126;8.710;2022-12-18T03:30:03;-7.27;91.09
67157;SHT31;54086;50.126;8.710;2022-12-18T03:32:38;-7.30;91.29
67157;SHT31;54086;50.126;8.710;2022-12-18T03:35:07;-7.27;91.14
67157;SHT31;54086;50.126;8.710;2022-12-18T03:37:33;-7.23;91.14
67157;SHT31;54086;50.126;8.710;2022-12-18T03:39:59;-7.27;90.88
67157;SHT31;54086;50.126;8.710;2022-12-18T03:48:02;-7.19;90.31
67157;SHT31;54086;50.126;8.710;2022-12-18T03:50:43;-7.24;90.04
67157;SHT31;54086;50.126;8.710;2022-12-18T03:55:51;-7.31;90.14
67157;SHT31;54086;50.126;8.710;2022-12-18T03:58:20;-7.33;90.04
67157;SHT31;54086;50.126;8.710;2022-12-18T04:00:47;-7.31;90.14
67157;SHT31;54086;50.126;8.710;2022-12-18T04:03:16;-7.33;90.14
67157;SHT31;54086;50.126;8.710;2022-12-18T04:05:43;-7.30;90.11
67157;SHT31;54086;50.126;8.710;2022-12-18T04:08:09;-7.23;90.04
67157;SHT31;54086;50.126;8.710;2022-12-18T04:10:34;-7.23;90.08
67157;SHT31;54086;50.126;8.710;2022-12-18T04:13:00;-7.14;89.65
67157;SHT31;54086;50.126;8.710;2022-12-18T04:15:25;-7.20;89.06
67157;SHT31;54086;50.126;8.710;2022-12-18T04:17:51;-7.27;89.44
67157;SHT31;54086;50.126;8.710;2022-12-18T04:20:17;-7.30;89.66
67157;SHT31;54086;50.126;8.710;2022-12-18T04:22:42;-7.31;89.71
67157;SHT31;54086;50.126;8.710;2022-12-18T04:25:08;-7.24;90.20
67157;SHT31;54086;50.126;8.710;2022-12-18T04:27:34;-7.23;89.89
67157;SHT31;54086;50.126;8.710;2022-12-18T04:29:59;-7.20;90.00
67157;SHT31;54086;50.126;8.710;2022-12-18T04:32:25;-7.23;89.54
67157;SHT31;54086;50.126;8.710;2022-12-18T04:34:50;-7.28;89.36
67157;SHT31;54086;50.126;8.710;2022-12-18T04:37:16;-7.23;89.25
67157;SHT31;54086;50.126;8.710;2022-12-18T04:39:41;-7.13;89.26
67157;SHT31;54086;50.126;8.710;2022-12-18T04:42:06;-7.12;89.30
67157;SHT31;54086;50.126;8.710;2022-12-18T04:44:32;-7.10;89.10
67157;SHT31;54086;50.126;8.710;2022-12-18T04:46:57;-7.06;89.07
67157;SHT31;54086;50.126;8.710;2022-12-18T04:49:22;-7.16;88.79
67157;SHT31;54086;50.126;8.710;2022-12-18T04:51:48;-7.14;89.13
67157;SHT31;54086;50.126;8.710;2022-12-18T04:54:13;-7.14;89.14
67157;SHT31;54086;50.126;8.710;2022-12-18T04:56:39;-7.09;89.19
67157;SHT31;54086;50.126;8.710;2022-12-18T04:59:04;-7.16;89.04
67157;SHT31;54086;50.126;8.710;2022-12-18T05:01:30;-7.20;89.33
67157;SHT31;54086;50.126;8.710;2022-12-18T05:03:55;-7.23;89.20
67157;SHT31;54086;50.126;8.710;2022-12-18T05:06:20;-7.24;89.24
67157;SHT31;54086;50.126;8.710;2022-12-18T05:08:46;-7.27;89.40
67157;SHT31;54086;50.126;8.710;2022-12-18T05:11:14;-7.22;89.22
67157;SHT31;54086;50.126;8.710;2022-12-18T05:13:44;-7.17;89.09
67157;SHT31;54086;50.126;8.710;2022-12-18T05:16:10;-7.12;88.67
67157;SHT31;54086;50.126;8.710;2022-12-18T05:18:36;-7.03;88.65
67157;SHT31;54086;50.126;8.710;2022-12-18T05:21:01;-7.06;88.70
67157;SHT31;54086;50.126;8.710;2022-12-18T05:23:27;-7.02;88.89
67157;SHT31;54086;50.126;8.710;2022-12-18T05:25:54;-7.03;88.61
67157;SHT31;54086;50.126;8.710;2022-12-18T05:28:21;-6.93;88.66
67157;SHT31;54086;50.126;8.710;2022-12-18T05:30:50;-6.96;88.70
67157;SHT31;54086;50.126;8.710;2022-12-18T05:33:18;-6.97;88.84
67157;SHT31;54086;50.126;8.710;2022-12-18T05:35:43;-7.09;88.64
67157;SHT31;54086;50.126;8.710;2022-12-18T05:38:09;-7.14;88.66
67157;SHT31;54086;50.126;8.710;2022-12-18T05:40:34;-7.45;88.43
67157;SHT31;54086;50.126;8.710;2022-12-18T05:43:00;-7.62;89.02
67157;SHT31;54086;50.126;8.710;2022-12-18T05:45:25;-7.48;89.07
67157;SHT31;54086;50.126;8.710;2022-12-18T05:47:50;-7.48;89.07
67157;SHT31;54086;50.126;8.710;2022-12-18T05:50:16;-7.65;89.16
67157;SHT31;54086;50.126;8.710;2022-12-18T05:52:41;-7.62;89.31
67157;SHT31;54086;50.126;8.710;2022-12-18T05:55:07;-7.68;89.28
67157;SHT31;54086;50.126;8.710;2022-12-18T05:57:32;-7.84;89.65
67157;SHT31;54086;50.126;8.710;2022-12-18T05:59:58;-7.99;90.02
67157;SHT31;54086;50.126;8.710;2022-12-18T06:02:23;-7.92;90.38
67157;SHT31;54086;50.126;8.710;2022-12-18T06:04:48;-7.74;89.98
67157;SHT31;54086;50.126;8.710;2022-12-18T06:07:14;-7.74;89.87
67157;SHT31;54086;50.126;8.710;2022-12-18T06:09:39;-7.78;89.70
67157;SHT31;54086;50.126;8.710;2022-12-18T06:12:05;-7.72;89.78
67157;SHT31;54086;50.126;8.710;2022-12-18T06:14:30;-7.75;90.08
67157;SHT31;54086;50.126;8.710;2022-12-18T06:16:55;-7.65;89.93
67157;SHT31;54086;50.126;8.710;2022-12-18T06:19:21;-7.70;89.45
67157;SHT31;54086;50.126;8.710;2022-12-18T06:21:46;-7.74;89.81
67157;SHT31;54086;50.126;8.710;2022-12-18T06:24:12;-7.92;90.03
67157;SHT31;54086;50.126;8.710;2022-12-18T06:26:38;-7.89;90.37
67157;SHT31;54086;50.126;8.710;2022-12-18T06:29:04;-8.02;90.51
67157;SHT31;54086;50.126;8.710;2022-12-18T06:31:29;-8.06;90.56
67157;SHT31;54086;50.126;8.710;2022-12-18T06:33:55;-8.02;90.81
67157;SHT31;54086;50.126;8.710;2022-12-18T06:36:20;-7.98;90.36
67157;SHT31;54086;50.126;8.710;2022-12-18T06:38:46;-7.95;90.31
67157;SHT31;54086;50.126;8.710;2022-12-18T06:41:21;-7.78;90.33
67157;SHT31;54086;50.126;8.710;2022-12-18T06:43:46;-7.68;90.07
67157;SHT31;54086;50.126;8.710;2022-12-18T06:46:12;-7.71;90.07
67157;SHT31;54086;50.126;8.710;2022-12-18T06:48:37;-7.68;90.04
67157;SHT31;54086;50.126;8.710;2022-12-18T06:51:03;-7.67;89.93
67157;SHT31;54086;50.126;8.710;2022-12-18T06:53:28;-7.70;89.88
67157;SHT31;54086;50.126;8.710;2022-12-18T06:58:27;-7.64;90.21
67157;SHT31;54086;50.126;8.710;2022-12-18T07:00:53;-7.68;89.95
67157;SHT31;54086;50.126;8.710;2022-12-18T07:03:18;-7.65;89.98
67157;SHT31;54086;50.126;8.710;2022-12-18T07:05:43;-7.51;90.08
67157;SHT31;54086;50.126;8.710;2022-12-18T07:08:09;-7.38;89.96
67157;SHT31;54086;50.126;8.710;2022-12-18T07:10:41;-7.27;89.67
67157;SHT31;54086;50.126;8.710;2022-12-18T07:13:07;-7.23;89.19
67157;SHT31;54086;50.126;8.710;2022-12-18T07:15:32;-7.20;89.04
67157;SHT31;54086;50.126;8.710;2022-12-18T07:17:58;-7.17;88.95
67157;SHT31;54086;50.126;8.710;2022-12-18T07:20:23;-7.20;88.59
67157;SHT31;54086;50.126;8.710;2022-12-18T07:22:49;-7.16;88.59
67157;SHT31;54086;50.126;8.710;2022-12-18T07:25:14;-7.19;88.44
67157;SHT31;54086;50.126;8.710;2022-12-18T07:27:39;-7.19;88.71
67157;SHT31;54086;50.126;8.710;2022-12-18T07:30:05;-7.31;89.00
67157;SHT31;54086;50.126;8.710;2022-12-18T07:32:31;-7.41;89.57
67157;SHT31;54086;50.126;8.710;2022-12-18T07:34:56;-7.54;89.56
67157;SHT31;54086;50.126;8.710;2022-12-18T07:37:21;-7.56;89.72
67157;SHT31;54086;50.126;8.710;2022-12-18T07:39:47;-7.67;89.93
67157;SHT31;54086;50.126;8.710;2022-12-18T07:42:12;-7.71;90.15
67157;SHT31;54086;50.126;8.710;2022-12-18T07:44:56;-7.71;90.07
67157;SHT31;54086;50.126;8.710;2022-12-18T07:47:21;-7.67;90.21
67157;SHT31;54086;50.126;8.710;2022-12-18T07:49:47;-7.68;90.06
67157;SHT31;54086;50.126;8.710;2022-12-18T07:52:12;-7.64;90.22
67157;SHT31;54086;50.126;8.710;2022-12-18T07:54:38;-7.70;90.23
67157;SHT31;54086;50.126;8.710;2022-12-18T07:57:04;-7.79;90.34
67157;SHT31;54086;50.126;8.710;2022-12-18T07:59:29;-7.78;90.38
67157;SHT31;54086;50.126;8.710;2022-12-18T08:01:54;-7.70;90.14
67157;SHT31;54086;50.126;8.710;2022-12-18T08:04:20;-7.62;90.02
67157;SHT31;54086;50.126;8.710;2022-12-18T08:06:46;-7.58;90.04
67157;SHT31;54086;50.126;8.710;2022-12-18T08:09:11;-7.52;89.99
67157;SHT31;54086;50.126;8.710;2022-12-18T08:11:36;-7.48;90.21
67157;SHT31;54086;50.126;8.710;2022-12-18T08:14:02;-7.44;90.00
67157;SHT31;54086;50.126;8.710;2022-12-18T08:16:27;-7.51;90.08
67157;SHT31;54086;50.126;8.710;2022-12-18T08:18:53;-7.37;90.07
67157;SHT31;54086;50.126;8.710;2022-12-18T08:21:25;-7.34;89.68
67157;SHT31;54086;50.126;8.710;2022-12-18T08:23:52;-7.23;89.81
67157;SHT31;54086;50.126;8.710;2022-12-18T08:26:19;-7.09;89.44
67157;SHT31;54086;50.126;8.710;2022-12-18T08:28:44;-7.00;89.45
67157;SHT31;54086;50.126;8.710;2022-12-18T08:31:10;-6.83;89.20
67157;SHT31;54086;50.126;8.710;2022-12-18T08:33:36;-6.65;88.80
67157;SHT31;54086;50.126;8.710;2022-12-18T08:36:03;-6.67;88.79
67157;SHT31;54086;50.126;8.710;2022-12-18T08:38:29;-6.48;88.77
67157;SHT31;54086;50.126;8.710;2022-12-18T08:41:02;-6.40;88.74
67157;SHT31;54086;50.126;8.710;2022-12-18T08:43:31;-6.37;88.51
67157;SHT31;54086;50.126;8.710;2022-12-18T08:46:16;-6.14;88.36
67157;SHT31;54086;50.126;8.710;2022-12-18T08:48:41;-6.10;87.86
67157;SHT31;54086;50.126;8.710;2022-12-18T08:51:07;-6.09;87.57
67157;SHT31;54086;50.126;8.710;2022-12-18T08:53:34;-6.03;87.65
67157;SHT31;54086;50.126;8.710;2022-12-18T08:56:00;-5.96;87.58
67157;SHT31;54086;50.126;8.710;2022-12-18T08:58:25;-5.96;87.74
67157;SHT31;54086;50.126;8.710;2022-12-18T09:00:50;-5.94;87.42
67157;SHT31;54086;50.126;8.710;2022-12-18T09:03:18;-5.82;87.05
67157;SHT31;54086;50.126;8.710;2022-12-18T09:05:45;-5.63;86.26
67157;SHT31;54086;50.126;8.710;2022-12-18T09:08:12;-5.48;86.57
67157;SHT31;54086;50.126;8.710;2022-12-18T09:10:48;-5.00;85.34
67157;SHT31;54086;50.126;8.710;2022-12-18T09:13:15;-4.84;84.32
67157;SHT31;54086;50.126;8.710;2022-12-18T09:15:54;-4.45;83.69
67157;SHT31;54086;50.126;8.710;2022-12-18T09:18:21;-4.86;83.95
67157;SHT31;54086;50.126;8.710;2022-12-18T09:20:48;-4.73;83.54
67157;SHT31;54086;50.126;8.710;2022-12-18T09:23:13;-4.80;83.91
67157;SHT31;54086;50.126;8.710;2022-12-18T09:25:39;-4.69;83.92
67157;SHT31;54086;50.126;8.710;2022-12-18T09:28:11;-4.49;83.41
67157;SHT31;54086;50.126;8.710;2022-12-18T09:30:47;-4.42;82.40
67157;SHT31;54086;50.126;8.710;2022-12-18T09:33:14;-4.49;82.80
67157;SHT31;54086;50.126;8.710;2022-12-18T09:35:41;-4.58;83.29
67157;SHT31;54086;50.126;8.710;2022-12-18T09:38:08;-4.94;84.41
67157;SHT31;54086;50.126;8.710;2022-12-18T09:40:40;-5.24;84.99
67157;SHT31;54086;50.126;8.710;2022-12-18T09:43:13;-5.31;85.51
67157;SHT31;54086;50.126;8.710;2022-12-18T09:45:46;-5.45;86.15
67157;SHT31;54086;50.126;8.710;2022-12-18T09:48:23;-5.28;86.50
67157;SHT31;54086;50.126;8.710;2022-12-18T09:50:50;-5.38;86.96
67157;SHT31;54086;50.126;8.710;2022-12-18T09:53:21;-5.21;86.56
67157;SHT31;54086;50.126;8.710;2022-12-18T09:55:48;-5.07;86.12
67157;SHT31;54086;50.126;8.710;2022-12-18T09:58:24;-5.18;85.36
67157;SHT31;54086;50.126;8.710;2022-12-18T10:00:52;-5.03;85.36
67157;SHT31;54086;50.126;8.710;2022-12-18T10:03:18;-5.15;86.08
67157;SHT31;54086;50.126;8.710;2022-12-18T10:06:03;-5.11;85.68
67157;SHT31;54086;50.126;8.710;2022-12-18T10:13:58;-5.22;86.47
67157;SHT31;54086;50.126;8.710;2022-12-18T10:16:46;-5.18;86.70
67157;SHT31;54086;50.126;8.710;2022-12-18T10:25:01;-4.97;86.34
67157;SHT31;54086;50.126;8.710;2022-12-18T10:27:30;-4.93;86.42
67157;SHT31;54086;50.126;8.710;2022-12-18T10:29:56;-4.92;86.47
67157;SHT31;54086;50.126;8.710;2022-12-18T10:32:29;-4.82;86.09
67157;SHT31;54086;50.126;8.710;2022-12-18T10:34:57;-4.82;86.00
67157;SHT31;54086;50.126;8.710;2022-12-18T10:37:25;-5.01;85.88
67157;SHT31;54086;50.126;8.710;2022-12-18T10:40:08;-5.14;85.52
67157;SHT31;54086;50.126;8.710;2022-12-18T10:42:34;-5.00;85.59
67157;SHT31;54086;50.126;8.710;2022-12-18T10:45:10;-5.11;85.79
67157;SHT31;54086;50.126;8.710;2022-12-18T10:47:42;-5.15;86.10
67157;SHT31;54086;50.126;8.710;2022-12-18T10:50:19;-5.07;86.03
67157;SHT31;54086;50.126;8.710;2022-12-18T10:52:58;-5.08;85.90
67157;SHT31;54086;50.126;8.710;2022-12-18T10:55:37;-4.99;86.20
67157;SHT31;54086;50.126;8.710;2022-12-18T10:58:25;-5.00;85.83
67157;SHT31;54086;50.126;8.710;2022-12-18T11:01:09;-5.01;85.72
67157;SHT31;54086;50.126;8.710;2022-12-18T11:06:10;-5.01;85.98
67157;SHT31;54086;50.126;8.710;2022-12-18T11:08:36;-4.93;86.00
67157;SHT31;54086;50.126;8.710;2022-12-18T11:11:02;-5.04;85.40
67157;SHT31;54086;50.126;8.710;2022-12-18T11:13:30;-4.90;85.83
67157;SHT31;54086;50.126;8.710;2022-12-18T11:15:57;-4.89;85.44
67157;SHT31;54086;50.126;8.710;2022-12-18T11:18:27;-4.99;85.37
67157;SHT31;54086;50.126;8.710;2022-12-18T11:20:59;-4.97;85.77
67157;SHT31;54086;50.126;8.710;2022-12-18T11:23:26;-4.83;85.66
67157;SHT31;54086;50.126;8.710;2022-12-18T11:25:55;-4.89;85.39
67157;SHT31;54086;50.126;8.710;2022-12-18T11:28:38;-4.94;85.57
67157;SHT31;54086;50.126;8.710;2022-12-18T11:31:23;-4.80;85.51
67157;SHT31;54086;50.126;8.710;2022-12-18T11:36:21;-4.66;85.65
67157;SHT31;54086;50.126;8.710;2022-12-18T11:38:49;-4.62;85.45
67157;SHT31;54086;50.126;8.710;2022-12-18T11:44:14;-4.77;85.58
67157;SHT31;54086;50.126;8.710;2022-12-18T11:46:48;-4.72;85.89
67157;SHT31;54086;50.126;8.710;2022-12-18T11:49:22;-4.76;85.79
67157;SHT31;54086;50.126;8.710;2022-12-18T11:54:24;-4.70;85.90
67157;SHT31;54086;50.126;8.710;2022-12-18T11:57:03;-4.56;85.80
67157;SHT31;54086;50.126;8.710;2022-12-18T11:59:36;-4.56;86.14
67157;SHT31;54086;50.126;8.710;2022-12-18T12:05:40;-4.59;86.23
67157;SHT31;54086;50.126;8.710;2022-12-18T12:08:22;-4.52;86.27
67157;SHT31;54086;50.126;8.710;2022-12-18T12:16:17;-4.24;86.42
67157;SHT31;54086;50.126;8.710;2022-12-18T12:21:41;-4.12;86.30
67157;SHT31;54086;50.126;8.710;2022-12-18T12:25:14;-4.19;85.98
67157;SHT31;54086;50.126;8.710;2022-12-18T12:30:38;-4.17;86.22
67157;SHT31;54086;50.126;8.710;2022-12-18T12:36:08;-4.07;85.96
67157;SHT31;54086;50.126;8.710;2022-12-18T12:38:43;-4.12;86.37
67157;SHT31;54086;50.126;8.710;2022-12-18T12:41:14;-4.24;86.50
67157;SHT31;54086;50.126;8.710;2022-12-18T12:44:02;-4.24;86.63
67157;SHT31;54086;50.126;8.710;2022-12-18T12:46:31;-4.32;86.84
67157;SHT31;54086;50.126;8.710;2022-12-18T12:49:18;-4.25;86.88
67157;SHT31;54086;50.126;8.710;2022-12-18T12:51:48;-4.19;86.81
67157;SHT31;54086;50.126;8.710;2022-12-18T12:54:18;-4.12;86.97
67157;SHT31;54086;50.126;8.710;2022-12-18T12:56:59;-4.08;86.87
67157;SHT31;54086;50.126;8.710;2022-12-18T12:59:55;-4.01;86.63
67157;SHT31;54086;50.126;8.710;2022-12-18T13:10:39;-3.93;86.68
67157;SHT31;54086;50.126;8.710;2022-12-18T13:15:44;-3.94;86.82
67157;SHT31;54086;50.126;8.710;2022-12-18T13:20:40;-3.95;86.94
67157;SHT31;54086;50.126;8.710;2022-12-18T13:25:53;-3.93;86.80
67157;SHT31;54086;50.126;8.710;2022-12-18T13:31:03;-3.74;86.79
67157;SHT31;54086;50.126;8.710;2022-12-18T13:38:47;-3.73;86.60
67157;SHT31;54086;50.126;8.710;2022-12-18T13:41:33;-3.74;86.66
67157;SHT31;54086;50.126;8.710;2022-12-18T13:44:20;-3.74;86.83
67157;SHT31;54086;50.126;8.710;2022-12-18T13:46:49;-3.63;86.80
67157;SHT31;54086;50.126;8.710;2022-12-18T13:49:38;-3.70;86.82
67157;SHT31;54086;50.126;8.710;2022-12-18T13:52:17;-3.67;87.07
67157;SHT31;54086;50.126;8.710;2022-12-18T13:54:47;-3.56;87.03
67157;SHT31;54086;50.126;8.710;2022-12-18T13:57:29;-3.67;86.79
67157;SHT31;54086;50.126;8.710;2022-12-18T13:59:55;-3.59;86.89
67157;SHT31;54086;50.126;8.710;2022-12-18T14:02:23;-3.63;86.89
67157;SHT31;54086;50.126;8.710;2022-12-18T14:04:50;-3.62;86.93
67157;SHT31;54086;50.126;8.710;2022-12-18T14:07:25;-3.64;87.03
67157;SHT31;54086;50.126;8.710;2022-12-18T14:09:54;-3.60;87.05
67157;SHT31;54086;50.126;8.710;2022-12-18T14:12:30;-3.58;87.01
67157;SHT31;54086;50.126;8.710;2022-12-18T14:17:55;-3.49;87.07
67157;SHT31;54086;50.126;8.710;2022-12-18T14:20:22;-3.50;87.18
67157;SHT31;54086;50.126;8.710;2022-12-18T14:22:49;-3.43;87.21
67157;SHT31;54086;50.126;8.710;2022-12-18T14:25:16;-3.50;87.13
67157;SHT31;54086;50.126;8.710;2022-12-18T14:27:46;-3.42;87.25
67157;SHT31;54086;50.126;8.710;2022-12-18T14:30:39;-3.38;87.35
67157;SHT31;54086;50.126;8.710;2022-12-18T14:35:35;-3.29;87.27
67157;SHT31;54086;50.126;8.710;2022-12-18T14:38:20;-3.23;87.40
67157;SHT31;54086;50.126;8.710;2022-12-18T14:40:46;-3.23;87.39
67157;SHT31;54086;50.126;8.710;2022-12-18T14:43:12;-3.25;87.31
67157;SHT31;54086;50.126;8.710;2022-12-18T14:45:38;-3.22;87.32
67157;SHT31;54086;50.126;8.710;2022-12-18T14:50:43;-3.21;87.54
67157;SHT31;54086;50.126;8.710;2022-12-18T14:53:33;-3.18;87.59
67157;SHT31;54086;50.126;8.710;2022-12-18T14:55:59;-3.15;87.43
67157;SHT31;54086;50.126;8.710;2022-12-18T14:58:25;-3.15;87.48
67157;SHT31;54086;50.126;8.710;2022-12-18T15:00:50;-3.22;87.43
67157;SHT31;54086;50.126;8.710;2022-12-18T15:03:20;-3.19;87.54
67157;SHT31;54086;50.126;8.710;2022-12-18T15:05:46;-3.21;87.75
67157;SHT31;54086;50.126;8.710;2022-12-18T15:08:29;-3.18;87.82
67157;SHT31;54086;50.126;8.710;2022-12-18T15:10:55;-3.22;87.77
67157;SHT31;54086;50.126;8.710;2022-12-18T15:13:23;-3.22;87.87
67157;SHT31;54086;50.126;8.710;2022-12-18T15:15:50;-3.25;87.90
67157;SHT31;54086;50.126;8.710;2022-12-18T15:18:18;-3.23;88.09
67157;SHT31;54086;50.126;8.710;2022-12-18T15:20:58;-3.25;88.21
67157;SHT31;54086;50.126;8.710;2022-12-18T15:26:08;-3.32;88.68
67157;SHT31;54086;50.126;8.710;2022-12-18T15:33:41;-3.25;88.16
67157;SHT31;54086;50.126;8.710;2022-12-18T15:36:13;-3.32;88.39
67157;SHT31;54086;50.126;8.710;2022-12-18T15:38:38;-3.27;88.65
67157;SHT31;54086;50.126;8.710;2022-12-18T15:41:04;-3.34;88.84
67157;SHT31;54086;50.126;8.710;2022-12-18T15:43:30;-3.32;88.96
67157;SHT31;54086;50.126;8.710;2022-12-18T15:46:13;-3.35;88.64
67157;SHT31;54086;50.126;8.710;2022-12-18T15:48:44;-3.29;88.56
67157;SHT31;54086;50.126;8.710;2022-12-18T15:51:16;-3.42;88.58
67157;SHT31;54086;50.126;8.710;2022-12-18T15:53:43;-3.29;88.62
67157;SHT31;54086;50.126;8.710;2022-12-18T15:56:12;-3.32;88.33
67157;SHT31;54086;50.126;8.710;2022-12-18T15:58:56;-3.27;88.37
67157;SHT31;54086;50.126;8.710;2022-12-18T16:01:27;-3.32;88.47
67157;SHT31;54086;50.126;8.710;2022-12-18T16:03:53;-3.35;88.30
67157;SHT31;54086;50.126;8.710;2022-12-18T16:06:19;-3.29;88.34
67157;SHT31;54086;50.126;8.710;2022-12-18T16:08:44;-3.28;88.40
67157;SHT31;54086;50.126;8.710;2022-12-18T16:11:22;-3.27;88.45
67157;SHT31;54086;50.126;8.710;2022-12-18T16:16:50;-3.25;88.33
67157;SHT31;54086;50.126;8.710;2022-12-18T16:19:16;-3.23;87.96
67157;SHT31;54086;50.126;8.710;2022-12-18T16:21:42;-3.21;88.00
67157;SHT31;54086;50.126;8.710;2022-12-18T16:24:33;-3.19;88.04
67157;SHT31;54086;50.126;8.710;2022-12-18T16:27:01;-3.13;87.96
67157;SHT31;54086;50.126;8.710;2022-12-18T16:29:28;-3.15;87.93
67157;SHT31;54086;50.126;8.710;2022-12-18T16:31:57;-3.18;87.93
67157;SHT31;54086;50.126;8.710;2022-12-18T16:34:27;-3.18;88.16
67157;SHT31;54086;50.126;8.710;2022-12-18T16:36:54;-3.13;88.41
67157;SHT31;54086;50.126;8.710;2022-12-18T16:39:20;-3.13;87.81
67157;SHT31;54086;50.126;8.710;2022-12-18T16:41:46;-3.04;88.17
67157;SHT31;54086;50.126;8.710;2022-12-18T16:44:12;-3.09;87.81
67157;SHT31;54086;50.126;8.710;2022-12-18T16:46:38;-3.05;87.80
67157;SHT31;54086;50.126;8.710;2022-12-18T16:49:04;-3.08;87.67
67157;SHT31;54086;50.126;8.710;2022-12-18T16:51:29;-3.02;87.68
67157;SHT31;54086;50.126;8.710;2022-12-18T16:53:57;-3.11;87.68
67157;SHT31;54086;50.126;8.710;2022-12-18T16:56:23;-3.08;87.96
67157;SHT31;54086;50.126;8.710;2022-12-18T16:58:56;-3.09;87.85
67157;SHT31;54086;50.126;8.710;2022-12-18T17:01:24;-3.11;87.87
67157;SHT31;54086;50.126;8.710;2022-12-18T17:03:53;-3.08;88.12
67157;SHT31;54086;50.126;8.710;2022-12-18T17:06:19;-3.12;88.00
67157;SHT31;54086;50.126;8.710;2022-12-18T17:08:45;-3.07;88.15
67157;SHT31;54086;50.126;8.710;2022-12-18T17:11:10;-3.07;88.19
67157;SHT31;54086;50.126;8.710;2022-12-18T17:13:36;-3.08;88.26
67157;SHT31;54086;50.126;8.710;2022-12-18T17:16:05;-3.05;88.12
67157;SHT31;54086;50.126;8.710;2022-12-18T17:18:32;-3.01;88.35
67157;SHT31;54086;50.126;8.710;2022-12-18T17:21:02;-2.92;88.15
67157;SHT31;54086;50.126;8.710;2022-12-18T17:23:28;-2.91;88.08
67157;SHT31;54086;50.126;8.710;2022-12-18T17:25:55;-2.90;88.09
67157;SHT31;54086;50.126;8.710;2022-12-18T17:28:22;-2.88;87.90
67157;SHT31;54086;50.126;8.710;2022-12-18T17:30:48;-2.95;88.09
67157;SHT31;54086;50.126;8.710;2022-12-18T17:33:13;-2.94;88.17
67157;SHT31;54086;50.126;8.710;2022-12-18T17:35:39;-2.94;88.30
67157;SHT31;54086;50.126;8.710;2022-12-18T17:38:04;-2.90;88.29